Eviapetrol I — SY5401 — position and weather

sailwx.info

Track history (hours):
 
Tides and Currents Weather Stations Pressure Air Temp Water Temp Dewpoint Dewpoint Depression Visibility Wind Speed Wind Dir Waves Ship Positions

Eviapetrol I

Last reported at 2017-Mar-20 19:23 UTC. Time now 2017-Mar-23 12:31 UTC.
Position N 37°55' E 023°00'.

Length 75 m; draft 4.7 m.

Type: Tanker. MMSI: 240285000.

Date/timePositionNaut miles runAvg speedWind from/ knotsBaromVisibWave heightAir tempDewpointWater temp
2017-Mar-20 19:23N 37°55' E 023°00'1 1.5
2017-Mar-20 18:33N 37°55' E 023°02'1 0.5
2017-Mar-20 17:33N 37°54' E 023°02'10 9.5
2017-Mar-20 16:34N 37°55' E 023°14'9 9.5
2017-Mar-20 15:33N 37°58' E 023°26'7 7.2
2017-Mar-20 14:34N 38°01' E 023°34'1 1.3
2017-Mar-20 13:32N 38°01' E 023°36'0 0.0
2017-Mar-20 12:33N 38°01' E 023°36'0 0.0
2017-Mar-20 11:33N 38°01' E 023°36'0 0.0
2017-Mar-20 10:29N 38°01' E 023°36'0 0.0
2017-Mar-20 09:29N 38°01' E 023°36'0 0.0
2017-Mar-20 08:31N 38°01' E 023°36'3 2.9
2017-Mar-20 07:33N 38°02' E 023°32'0 0.2
2017-Mar-20 06:33N 38°02' E 023°32'0 0.0
2017-Mar-20 05:33N 38°02' E 023°32'0 0.0
2017-Mar-20 04:33N 38°02' E 023°32'0 0.0
2017-Mar-20 03:33N 38°02' E 023°32'0 0.0
2017-Mar-20 02:33N 38°02' E 023°32'0 0.0
2017-Mar-20 01:33N 38°02' E 023°32'0 0.0
2017-Mar-20 00:33N 38°02' E 023°32'0 0.0
2017-Mar-19 23:33N 38°02' E 023°32'0 0.0
2017-Mar-19 22:33N 38°02' E 023°32'0 0.0
2017-Mar-19 21:33N 38°02' E 023°32'0 0.0
2017-Mar-19 20:33N 38°02' E 023°32'0 0.0
2017-Mar-19 19:33N 38°02' E 023°32'0 0.0
2017-Mar-19 18:30N 38°02' E 023°32'0 0.1
2017-Mar-19 17:33N 38°02' E 023°32'0 0.0
2017-Mar-19 16:30N 38°02' E 023°32'0 0.0
2017-Mar-19 15:33N 38°02' E 023°32'0 0.0
2017-Mar-19 14:33N 38°02' E 023°32'0 0.0
2017-Mar-19 13:33N 38°02' E 023°32'0 0.0
2017-Mar-19 12:33N 38°02' E 023°32'0 0.0
2017-Mar-19 11:33N 38°02' E 023°32'0 0.0
2017-Mar-19 10:33N 38°02' E 023°32'0 0.0
2017-Mar-19 09:33N 38°02' E 023°32'0 0.0
2017-Mar-19 08:33N 38°02' E 023°32'0 0.1
2017-Mar-19 07:33N 38°02' E 023°32'0 0.0
2017-Mar-19 06:33N 38°02' E 023°32'0 0.0
2017-Mar-19 05:33N 38°02' E 023°32'3 2.8
2017-Mar-19 04:33N 38°02' E 023°35'0 0.3
2017-Mar-19 03:32N 38°02' E 023°36'0 0.0
2017-Mar-19 02:32N 38°02' E 023°36'0 0.0
2017-Mar-19 01:32N 38°02' E 023°36'0 0.0
2017-Mar-19 00:32N 38°02' E 023°36'0 0.0
2017-Mar-18 23:32N 38°02' E 023°36'0 0.0
2017-Mar-18 22:32N 38°02' E 023°36'0 0.0
2017-Mar-18 21:32N 38°02' E 023°36'0 0.0
2017-Mar-18 20:32N 38°02' E 023°36'0 0.0
2017-Mar-18 19:32N 38°02' E 023°36'0 0.3
2017-Mar-18 18:34N 38°02' E 023°35'8 7.8
2017-Mar-18 17:34N 37°60' E 023°26'6 5.8
2017-Mar-18 16:33N 37°54' E 023°23'1310.0
2017-Mar-18 15:15N 37°41' E 023°25'6 0.1
2017-Mar-16 12:28N 37°37' E 023°31'910.3
2017-Mar-16 11:33N 37°40' E 023°20'9 8.9
2017-Mar-16 10:32N 37°47' E 023°13'9 9.3
2017-Mar-16 09:33N 37°55' E 023°06'1 0.2
2017-Mar-16 06:28N 37°55' E 023°05'0 0.0
2017-Mar-16 05:28N 37°55' E 023°05'0 0.0
2017-Mar-16 04:32N 37°55' E 023°05'0 0.0
2017-Mar-16 02:32N 37°55' E 023°05'0 0.0
2017-Mar-16 01:25N 37°55' E 023°05'0 0.0
2017-Mar-15 23:07N 37°55' E 023°05'0 0.0
2017-Mar-15 22:07N 37°55' E 023°05'0 0.0
2017-Mar-15 21:25N 37°55' E 023°05'0 0.0
2017-Mar-15 20:32N 37°55' E 023°05'0 0.0
2017-Mar-15 19:18N 37°55' E 023°05'0 0.0
2017-Mar-15 18:33N 37°55' E 023°05'0 0.0
2017-Mar-15 17:30N 37°55' E 023°05'0 0.0
2017-Mar-15 16:30N 37°55' E 023°05'0 0.0
2017-Mar-15 15:28N 37°55' E 023°05'0 0.0
2017-Mar-15 14:27N 37°55' E 023°05'0 0.0
2017-Mar-15 13:30N 37°55' E 023°05'0 0.0
2017-Mar-15 12:30N 37°55' E 023°05'0 0.0
2017-Mar-15 11:33N 37°55' E 023°05'0 0.0
2017-Mar-15 10:32N 37°55' E 023°05'1 0.7
2017-Mar-15 09:33N 37°55' E 023°06'9 9.4
2017-Mar-15 08:33N 37°47' E 023°13'9 9.4
2017-Mar-15 07:33N 37°40' E 023°21'10 9.8
2017-Mar-15 06:33N 37°39' E 023°33'47 9.3
2017-Mar-15 01:28N 37°53' E 024°30'  
2017-Mar-12 10:10N 37°39' E 023°48'6 8.4
2017-Mar-12 09:29N 37°42' E 023°41'9 9.4
2017-Mar-12 08:33N 37°49' E 023°37'8 8.4
2017-Mar-12 07:34N 37°57' E 023°33'4 4.3
2017-Mar-12 06:31N 38°02' E 023°32'0 0.0
2017-Mar-12 05:31N 38°02' E 023°32'0 0.0
2017-Mar-12 04:31N 38°02' E 023°32'0 0.0
2017-Mar-12 03:31N 38°02' E 023°32'0 0.0
2017-Mar-12 02:31N 38°02' E 023°32'0 0.0
2017-Mar-12 01:31N 38°02' E 023°32'0 0.0
2017-Mar-12 00:31N 38°02' E 023°32'0 0.0
2017-Mar-11 23:31N 38°02' E 023°32'0 0.0
2017-Mar-11 22:31N 38°02' E 023°32'0 0.0
2017-Mar-11 21:31N 38°02' E 023°32'0 0.0
2017-Mar-11 20:31N 38°02' E 023°32'0 0.0
2017-Mar-11 19:31N 38°02' E 023°32'0 0.0
2017-Mar-11 18:31N 38°02' E 023°32'0 0.0
2017-Mar-11 17:31N 38°02' E 023°32'0 0.0
2017-Mar-11 16:31N 38°02' E 023°32'0 0.0
2017-Mar-11 15:31N 38°02' E 023°32'0 0.0
2017-Mar-11 14:31N 38°02' E 023°32'3 2.8
2017-Mar-11 13:33N 38°02' E 023°36'0 0.1
2017-Mar-11 12:33N 38°02' E 023°36'0 0.0
2017-Mar-11 10:24N 38°02' E 023°36'0 0.0
2017-Mar-11 09:33N 38°02' E 023°36'0 0.0
2017-Mar-11 08:12N 38°02' E 023°36'0 0.0
2017-Mar-11 07:33N 38°02' E 023°36'0 0.0
2017-Mar-11 06:33N 38°02' E 023°36'0 0.0
2017-Mar-11 05:33N 38°02' E 023°36'0 0.0
2017-Mar-11 04:33N 38°02' E 023°36'0 0.0
2017-Mar-11 03:33N 38°02' E 023°36'0 0.0
2017-Mar-11 02:33N 38°02' E 023°36'0 0.0
2017-Mar-11 01:33N 38°02' E 023°36'0 0.0
2017-Mar-11 00:33N 38°02' E 023°36'0 0.0
2017-Mar-10 23:33N 38°02' E 023°36'0 0.0
2017-Mar-10 22:33N 38°02' E 023°36'0 0.0
2017-Mar-10 21:33N 38°02' E 023°36'0 0.0
2017-Mar-10 20:33N 38°02' E 023°36'0 0.0
2017-Mar-10 19:33N 38°02' E 023°36'  
Track history (hours):
 
Tides and Currents Weather Stations Pressure Air Temp Water Temp Dewpoint Dewpoint Depression Visibility Wind Speed Wind Dir Waves Ship Positions

Eviapetrol I

Last reported at 2017-Mar-20 19:23 UTC. Time now 2017-Mar-23 12:31 UTC.
Position N 37°55' E 023°00'.

Length 75 m; draft 4.7 m.

Type: Tanker. MMSI: 240285000.

Date/timePositionNaut miles runAvg speedWind from/ knotsBaromVisibWave heightAir tempDewpointWater temp
2017-Mar-20 19:23N 37°55' E 023°00'1 1.5
2017-Mar-20 18:33N 37°55' E 023°02'1 0.5
2017-Mar-20 17:33N 37°54' E 023°02'10 9.5
2017-Mar-20 16:34N 37°55' E 023°14'9 9.5
2017-Mar-20 15:33N 37°58' E 023°26'7 7.2
2017-Mar-20 14:34N 38°01' E 023°34'1 1.3
2017-Mar-20 13:32N 38°01' E 023°36'0 0.0
2017-Mar-20 12:33N 38°01' E 023°36'0 0.0
2017-Mar-20 11:33N 38°01' E 023°36'0 0.0
2017-Mar-20 10:29N 38°01' E 023°36'0 0.0
2017-Mar-20 09:29N 38°01' E 023°36'0 0.0
2017-Mar-20 08:31N 38°01' E 023°36'3 2.9
2017-Mar-20 07:33N 38°02' E 023°32'0 0.2
2017-Mar-20 06:33N 38°02' E 023°32'0 0.0
2017-Mar-20 05:33N 38°02' E 023°32'0 0.0
2017-Mar-20 04:33N 38°02' E 023°32'0 0.0
2017-Mar-20 03:33N 38°02' E 023°32'0 0.0
2017-Mar-20 02:33N 38°02' E 023°32'0 0.0
2017-Mar-20 01:33N 38°02' E 023°32'0 0.0
2017-Mar-20 00:33N 38°02' E 023°32'0 0.0
2017-Mar-19 23:33N 38°02' E 023°32'0 0.0
2017-Mar-19 22:33N 38°02' E 023°32'0 0.0
2017-Mar-19 21:33N 38°02' E 023°32'0 0.0
2017-Mar-19 20:33N 38°02' E 023°32'0 0.0
2017-Mar-19 19:33N 38°02' E 023°32'0 0.0
2017-Mar-19 18:30N 38°02' E 023°32'0 0.1
2017-Mar-19 17:33N 38°02' E 023°32'0 0.0
2017-Mar-19 16:30N 38°02' E 023°32'0 0.0
2017-Mar-19 15:33N 38°02' E 023°32'0 0.0
2017-Mar-19 14:33N 38°02' E 023°32'0 0.0
2017-Mar-19 13:33N 38°02' E 023°32'0 0.0
2017-Mar-19 12:33N 38°02' E 023°32'0 0.0
2017-Mar-19 11:33N 38°02' E 023°32'0 0.0
2017-Mar-19 10:33N 38°02' E 023°32'0 0.0
2017-Mar-19 09:33N 38°02' E 023°32'0 0.0
2017-Mar-19 08:33N 38°02' E 023°32'0 0.1
2017-Mar-19 07:33N 38°02' E 023°32'0 0.0
2017-Mar-19 06:33N 38°02' E 023°32'0 0.0
2017-Mar-19 05:33N 38°02' E 023°32'3 2.8
2017-Mar-19 04:33N 38°02' E 023°35'0 0.3
2017-Mar-19 03:32N 38°02' E 023°36'0 0.0
2017-Mar-19 02:32N 38°02' E 023°36'0 0.0
2017-Mar-19 01:32N 38°02' E 023°36'0 0.0
2017-Mar-19 00:32N 38°02' E 023°36'0 0.0
2017-Mar-18 23:32N 38°02' E 023°36'0 0.0
2017-Mar-18 22:32N 38°02' E 023°36'0 0.0
2017-Mar-18 21:32N 38°02' E 023°36'0 0.0
2017-Mar-18 20:32N 38°02' E 023°36'0 0.0
2017-Mar-18 19:32N 38°02' E 023°36'0 0.3
2017-Mar-18 18:34N 38°02' E 023°35'8 7.8
2017-Mar-18 17:34N 37°60' E 023°26'6 5.8
2017-Mar-18 16:33N 37°54' E 023°23'1310.0
2017-Mar-18 15:15N 37°41' E 023°25'6 0.1
2017-Mar-16 12:28N 37°37' E 023°31'910.3
2017-Mar-16 11:33N 37°40' E 023°20'9 8.9
2017-Mar-16 10:32N 37°47' E 023°13'9 9.3
2017-Mar-16 09:33N 37°55' E 023°06'1 0.2
2017-Mar-16 06:28N 37°55' E 023°05'0 0.0
2017-Mar-16 05:28N 37°55' E 023°05'0 0.0
2017-Mar-16 04:32N 37°55' E 023°05'0 0.0
2017-Mar-16 02:32N 37°55' E 023°05'0 0.0
2017-Mar-16 01:25N 37°55' E 023°05'0 0.0
2017-Mar-15 23:07N 37°55' E 023°05'0 0.0
2017-Mar-15 22:07N 37°55' E 023°05'0 0.0
2017-Mar-15 21:25N 37°55' E 023°05'0 0.0
2017-Mar-15 20:32N 37°55' E 023°05'0 0.0
2017-Mar-15 19:18N 37°55' E 023°05'0 0.0
2017-Mar-15 18:33N 37°55' E 023°05'0 0.0
2017-Mar-15 17:30N 37°55' E 023°05'0 0.0
2017-Mar-15 16:30N 37°55' E 023°05'0 0.0
2017-Mar-15 15:28N 37°55' E 023°05'0 0.0
2017-Mar-15 14:27N 37°55' E 023°05'0 0.0
2017-Mar-15 13:30N 37°55' E 023°05'0 0.0
2017-Mar-15 12:30N 37°55' E 023°05'0 0.0
2017-Mar-15 11:33N 37°55' E 023°05'0 0.0
2017-Mar-15 10:32N 37°55' E 023°05'1 0.7
2017-Mar-15 09:33N 37°55' E 023°06'9 9.4
2017-Mar-15 08:33N 37°47' E 023°13'9 9.4
2017-Mar-15 07:33N 37°40' E 023°21'10 9.8
2017-Mar-15 06:33N 37°39' E 023°33'47 9.3
2017-Mar-15 01:28N 37°53' E 024°30'  
2017-Mar-12 10:10N 37°39' E 023°48'6 8.4
2017-Mar-12 09:29N 37°42' E 023°41'9 9.4
2017-Mar-12 08:33N 37°49' E 023°37'8 8.4
2017-Mar-12 07:34N 37°57' E 023°33'4 4.3
2017-Mar-12 06:31N 38°02' E 023°32'0 0.0
2017-Mar-12 05:31N 38°02' E 023°32'0 0.0
2017-Mar-12 04:31N 38°02' E 023°32'0 0.0
2017-Mar-12 03:31N 38°02' E 023°32'0 0.0
2017-Mar-12 02:31N 38°02' E 023°32'0 0.0
2017-Mar-12 01:31N 38°02' E 023°32'0 0.0
2017-Mar-12 00:31N 38°02' E 023°32'0 0.0
2017-Mar-11 23:31N 38°02' E 023°32'0 0.0
2017-Mar-11 22:31N 38°02' E 023°32'0 0.0
2017-Mar-11 21:31N 38°02' E 023°32'0 0.0
2017-Mar-11 20:31N 38°02' E 023°32'0 0.0
2017-Mar-11 19:31N 38°02' E 023°32'0 0.0
2017-Mar-11 18:31N 38°02' E 023°32'0 0.0
2017-Mar-11 17:31N 38°02' E 023°32'0 0.0
2017-Mar-11 16:31N 38°02' E 023°32'0 0.0
2017-Mar-11 15:31N 38°02' E 023°32'0 0.0
2017-Mar-11 14:31N 38°02' E 023°32'3 2.8
2017-Mar-11 13:33N 38°02' E 023°36'0 0.1
2017-Mar-11 12:33N 38°02' E 023°36'0 0.0
2017-Mar-11 10:24N 38°02' E 023°36'0 0.0
2017-Mar-11 09:33N 38°02' E 023°36'0 0.0
2017-Mar-11 08:12N 38°02' E 023°36'0 0.0
2017-Mar-11 07:33N 38°02' E 023°36'0 0.0
2017-Mar-11 06:33N 38°02' E 023°36'0 0.0
2017-Mar-11 05:33N 38°02' E 023°36'0 0.0
2017-Mar-11 04:33N 38°02' E 023°36'0 0.0
2017-Mar-11 03:33N 38°02' E 023°36'0 0.0
2017-Mar-11 02:33N 38°02' E 023°36'0 0.0
2017-Mar-11 01:33N 38°02' E 023°36'0 0.0
2017-Mar-11 00:33N 38°02' E 023°36'0 0.0
2017-Mar-10 23:33N 38°02' E 023°36'0 0.0
2017-Mar-10 22:33N 38°02' E 023°36'0 0.0
2017-Mar-10 21:33N 38°02' E 023°36'0 0.0
2017-Mar-10 20:33N 38°02' E 023°36'0 0.0
2017-Mar-10 19:33N 38°02' E 023°36'  

Dump ship's entire track history